createdAt,value
2023-06-30T00:01:12.185Z,14.84
2023-06-30T00:06:14.568Z,15.02
2023-06-30T00:11:18.482Z,13.73
2023-06-30T00:16:21.628Z,14.67
2023-06-30T00:21:23.990Z,14.75
2023-06-30T00:26:26.368Z,14.98
2023-06-30T00:31:29.827Z,14.52
2023-06-30T00:36:32.947Z,13.93
2023-06-30T00:41:36.144Z,14.07
2023-06-30T00:46:38.611Z,14.91
2023-06-30T00:51:41.654Z,14.91
2023-06-30T00:56:44.220Z,14.66
2023-06-30T01:02:01.378Z,14.92
2023-06-30T01:07:24.486Z,14.01
2023-06-30T01:12:27.180Z,14.26
2023-06-30T01:17:30.043Z,14.08
2023-06-30T01:22:53.209Z,14.78
2023-06-30T01:27:57.309Z,14.81
2023-06-30T01:33:00.427Z,14.63
2023-06-30T01:38:03.821Z,14.65
2023-06-30T01:43:06.709Z,14.33
2023-06-30T01:48:09.286Z,13.95
2023-06-30T01:53:11.755Z,14.67
2023-06-30T01:58:14.129Z,14.18
2023-06-30T02:03:16.604Z,13.99
2023-06-30T02:08:19.187Z,14.45
2023-06-30T02:13:21.532Z,13.65
2023-06-30T02:18:26.492Z,14.45
2023-06-30T02:23:31.549Z,14.03
2023-06-30T02:28:33.970Z,14.79
2023-06-30T02:33:36.774Z,14.80
2023-06-30T02:38:39.145Z,14.28
2023-06-30T02:43:41.568Z,14.43
2023-06-30T02:48:44.088Z,14.00
2023-06-30T02:53:46.839Z,13.97
2023-06-30T02:58:49.207Z,14.88
2023-06-30T03:03:51.832Z,11.64
2023-06-30T03:08:54.422Z,14.91
2023-06-30T03:14:00.252Z,14.05
2023-06-30T03:19:08.031Z,14.23
2023-06-30T03:24:11.112Z,14.94
2023-06-30T03:29:13.527Z,14.14
2023-06-30T03:34:16.135Z,14.66
2023-06-30T03:39:19.409Z,14.33
2023-06-30T03:44:22.854Z,12.67
2023-06-30T03:49:25.843Z,13.90
2023-06-30T03:54:28.335Z,14.54
2023-06-30T03:59:30.795Z,14.46
2023-06-30T04:04:33.671Z,15.02
2023-06-30T04:09:36.803Z,12.49
2023-06-30T04:14:39.259Z,14.32
2023-06-30T04:19:41.611Z,14.75
2023-06-30T04:24:44.001Z,14.94
2023-06-30T04:29:46.364Z,14.40
2023-06-30T04:34:48.761Z,15.21
2023-06-30T04:39:51.793Z,15.24
2023-06-30T04:44:54.478Z,15.29
2023-06-30T04:49:56.990Z,14.23
2023-06-30T04:54:59.403Z,14.99
2023-06-30T05:00:02.107Z,15.24
2023-06-30T05:05:08.264Z,15.40
2023-06-30T05:10:11.198Z,15.03
2023-06-30T05:15:13.629Z,14.47
2023-06-30T05:20:16.728Z,14.25
2023-06-30T05:25:19.195Z,15.17
2023-06-30T05:30:21.559Z,15.34
2023-06-30T05:35:23.954Z,14.89
2023-06-30T05:40:26.338Z,15.02
2023-06-30T05:45:28.727Z,15.42
2023-06-30T05:50:31.291Z,14.65
2023-06-30T05:55:33.664Z,15.61
2023-06-30T06:00:36.323Z,15.63
2023-06-30T06:05:38.986Z,15.52
2023-06-30T06:10:41.702Z,15.02
2023-06-30T06:15:44.457Z,14.81
2023-06-30T06:20:46.988Z,14.34
2023-06-30T06:25:50.588Z,15.73
2023-06-30T06:30:53.403Z,15.34
2023-06-30T06:35:55.842Z,15.66
2023-06-30T06:40:58.289Z,15.52
2023-06-30T06:46:00.734Z,15.64
2023-06-30T06:51:04.806Z,15.50
2023-06-30T06:56:07.178Z,15.24
2023-06-30T07:01:11.501Z,15.53
2023-06-30T07:06:13.868Z,15.07
2023-06-30T07:11:16.246Z,15.45
2023-06-30T07:16:23.107Z,15.84
2023-06-30T07:21:27.667Z,15.62
2023-06-30T07:26:32.886Z,15.48
2023-06-30T07:31:35.684Z,15.17
2023-06-30T07:36:38.600Z,15.60
2023-06-30T07:41:40.953Z,15.54
2023-06-30T07:46:43.477Z,15.45
2023-06-30T07:51:46.835Z,15.90
2023-06-30T07:56:49.366Z,15.88
2023-06-30T08:01:52.499Z,15.45
2023-06-30T08:06:56.027Z,16.35
2023-06-30T08:11:58.894Z,15.19
2023-06-30T08:17:01.662Z,15.62
2023-06-30T08:22:04.619Z,16.28
2023-06-30T08:27:07.293Z,16.04
2023-06-30T08:32:10.200Z,16.72
2023-06-30T08:37:12.678Z,16.49
2023-06-30T08:42:16.596Z,16.58
2023-06-30T08:47:19.323Z,16.79
2023-06-30T08:52:23.337Z,16.89
2023-06-30T08:57:26.563Z,16.57
2023-06-30T09:02:29.302Z,16.36
2023-06-30T09:07:37.576Z,16.96
2023-06-30T09:12:41.065Z,17.13
2023-06-30T09:17:44.386Z,17.18
2023-06-30T09:22:51.608Z,17.20
2023-06-30T09:27:58.194Z,17.23
2023-06-30T09:33:01.081Z,17.36
2023-06-30T09:38:17.640Z,16.82
2023-06-30T09:43:22.048Z,17.68
2023-06-30T09:48:32.587Z,17.91
2023-06-30T09:53:42.303Z,17.57
2023-06-30T09:58:46.319Z,17.93
2023-06-30T10:03:50.374Z,17.51
2023-06-30T10:08:53.288Z,17.75
2023-06-30T10:13:59.357Z,17.70
2023-06-30T10:19:04.134Z,17.29
2023-06-30T10:24:07.122Z,16.36
2023-06-30T10:29:09.682Z,17.56
2023-06-30T10:34:12.518Z,17.46
2023-06-30T10:39:15.497Z,17.43
2023-06-30T10:44:22.215Z,17.52
2023-06-30T10:49:29.211Z,15.81
2023-06-30T10:54:48.935Z,15.43
2023-06-30T11:00:08.407Z,17.76
2023-06-30T11:05:30.587Z,17.80
2023-06-30T11:10:46.288Z,17.26
2023-06-30T11:15:53.455Z,17.14
2023-06-30T11:21:01.461Z,17.83
2023-06-30T11:26:30.118Z,17.70
2023-06-30T11:31:37.938Z,16.87
2023-06-30T11:36:40.447Z,17.84
2023-06-30T11:41:44.961Z,17.61
2023-06-30T11:46:47.501Z,17.80
2023-06-30T11:51:50.079Z,17.66
2023-06-30T11:56:52.497Z,17.72
2023-06-30T12:01:55.520Z,17.04
2023-06-30T12:06:58.040Z,17.63
2023-06-30T12:12:02.035Z,17.26
2023-06-30T12:17:05.715Z,17.02
2023-06-30T12:22:13.422Z,17.31
2023-06-30T12:27:16.331Z,17.22
2023-06-30T12:32:18.868Z,17.13
2023-06-30T12:37:26.728Z,17.60
2023-06-30T12:42:30.013Z,17.61
2023-06-30T12:47:34.219Z,17.61
2023-06-30T12:52:36.872Z,17.10
2023-06-30T12:57:40.141Z,17.61
2023-06-30T13:02:42.917Z,16.61
2023-06-30T13:07:46.093Z,17.43
2023-06-30T13:12:48.643Z,17.04
2023-06-30T13:17:51.840Z,17.36
2023-06-30T13:23:10.044Z,17.51
2023-06-30T13:28:16.753Z,17.41
2023-06-30T13:33:20.715Z,17.39
2023-06-30T13:38:24.551Z,17.17
2023-06-30T13:43:27.021Z,17.48
2023-06-30T13:48:33.310Z,17.49
2023-06-30T13:53:40.506Z,17.63
2023-06-30T13:58:43.177Z,17.40
2023-06-30T14:03:49.901Z,16.83
2023-06-30T14:08:52.452Z,17.35
2023-06-30T14:13:55.148Z,17.38
2023-06-30T14:18:57.652Z,17.07
2023-06-30T14:24:00.111Z,17.69
2023-06-30T14:29:02.682Z,16.59
2023-06-30T14:34:05.121Z,17.05
2023-06-30T14:39:07.763Z,17.67
2023-06-30T14:44:10.194Z,17.21
2023-06-30T14:49:12.704Z,17.41
2023-06-30T14:54:15.096Z,17.67
2023-06-30T14:59:17.569Z,17.68
2023-06-30T15:04:20.109Z,17.36
2023-06-30T15:09:22.735Z,17.71
2023-06-30T15:14:27.665Z,17.72
2023-06-30T15:19:30.163Z,17.61
2023-06-30T15:24:33.381Z,17.37
2023-06-30T15:29:35.850Z,16.51
2023-06-30T15:34:38.418Z,17.24
2023-06-30T15:39:40.934Z,17.55
2023-06-30T15:44:43.424Z,17.48
2023-06-30T15:49:46.653Z,16.92
2023-06-30T15:55:10.071Z,17.56
2023-06-30T16:00:13.458Z,17.35
2023-06-30T16:05:18.022Z,17.44
2023-06-30T16:10:20.529Z,17.03
2023-06-30T16:15:23.643Z,17.10
2023-06-30T16:20:26.722Z,16.96
2023-06-30T16:25:29.101Z,16.98
2023-06-30T16:30:34.418Z,17.02
2023-06-30T16:35:36.901Z,17.00
2023-06-30T16:40:39.573Z,17.11
2023-06-30T16:45:42.041Z,16.85
2023-06-30T16:50:44.592Z,16.69
2023-06-30T16:55:47.440Z,16.49
2023-06-30T17:00:50.878Z,16.46
2023-06-30T17:05:53.561Z,16.14
2023-06-30T17:10:56.397Z,16.56
2023-06-30T17:15:58.952Z,16.79
2023-06-30T17:21:01.620Z,16.54
2023-06-30T17:26:04.172Z,16.45
2023-06-30T17:31:06.939Z,16.39
2023-06-30T17:36:11.513Z,15.98
2023-06-30T17:41:14.334Z,16.14
2023-06-30T17:46:17.866Z,15.79
2023-06-30T17:51:20.367Z,16.47
2023-06-30T17:56:23.903Z,16.07
2023-06-30T18:01:26.421Z,15.74
2023-06-30T18:06:29.049Z,16.11
2023-06-30T18:11:31.535Z,16.05
2023-06-30T18:16:34.052Z,15.98
2023-06-30T18:21:36.494Z,15.81
2023-06-30T18:26:42.094Z,16.17
2023-06-30T18:31:44.901Z,15.66
2023-06-30T18:36:47.746Z,15.83
2023-06-30T18:41:50.578Z,15.75
2023-06-30T18:46:53.300Z,15.24
2023-06-30T18:51:55.751Z,15.18
2023-06-30T18:56:58.651Z,15.80
2023-06-30T19:02:01.302Z,15.89
2023-06-30T19:07:04.153Z,15.57
2023-06-30T19:12:07.202Z,15.32
2023-06-30T19:17:10.906Z,15.79
2023-06-30T19:22:16.062Z,15.76
2023-06-30T19:27:18.916Z,15.33
2023-06-30T19:32:21.499Z,15.54
2023-06-30T19:37:23.995Z,15.48
2023-06-30T19:42:28.829Z,15.34
2023-06-30T19:47:33.577Z,15.34
2023-06-30T19:52:38.213Z,15.54
2023-06-30T19:57:41.130Z,14.98
2023-06-30T20:02:44.546Z,15.42
2023-06-30T20:07:47.625Z,14.90
2023-06-30T20:12:51.112Z,15.22
2023-06-30T20:17:53.614Z,14.99
2023-06-30T20:22:57.187Z,14.93
2023-06-30T20:27:59.660Z,15.18
2023-06-30T20:33:02.191Z,14.86
2023-06-30T20:38:04.765Z,14.59
2023-06-30T20:43:07.208Z,14.26
2023-06-30T20:48:10.332Z,14.48
2023-06-30T20:53:12.743Z,15.23
2023-06-30T20:58:15.194Z,15.21
2023-06-30T21:03:17.839Z,14.87
2023-06-30T21:08:20.400Z,14.17
2023-06-30T21:13:22.784Z,14.34
2023-06-30T21:18:25.200Z,14.30
2023-06-30T21:23:27.598Z,15.16
2023-06-30T21:28:30.862Z,14.51
2023-06-30T21:33:33.343Z,14.87
2023-06-30T21:38:36.179Z,14.21
2023-06-30T21:43:38.552Z,14.75
2023-06-30T21:48:41.208Z,15.06
2023-06-30T21:53:43.677Z,14.78
2023-06-30T21:58:46.166Z,15.01
2023-06-30T22:03:48.682Z,15.02
2023-06-30T22:08:53.394Z,14.89
2023-06-30T22:13:57.965Z,14.98
2023-06-30T22:19:00.325Z,14.96
2023-06-30T22:24:02.738Z,14.15
2023-06-30T22:29:05.174Z,13.91
2023-06-30T22:34:07.768Z,14.68
2023-06-30T22:39:11.276Z,14.43
2023-06-30T22:44:13.684Z,14.51
2023-06-30T22:49:19.261Z,14.55
2023-06-30T22:54:21.652Z,14.79
2023-06-30T22:59:24.057Z,14.53
2023-06-30T23:04:26.469Z,14.67
2023-06-30T23:09:28.914Z,14.17
2023-06-30T23:14:31.382Z,14.56
2023-06-30T23:19:33.877Z,14.46
2023-06-30T23:24:37.043Z,14.10
2023-06-30T23:29:39.595Z,14.32
2023-06-30T23:34:42.019Z,14.44
2023-06-30T23:39:44.830Z,14.36
2023-06-30T23:44:47.229Z,14.63
2023-06-30T23:49:49.606Z,13.39
2023-06-30T23:54:52.346Z,14.46
2023-06-30T23:59:54.695Z,14.83
